Time;durP1;ratioP1;P1;durP2;ratioP2;P2;SDS_P1;SDS_P2;PMS_P1;PMS_P2;Temp;Humidity;BMP_temperature;BMP_pressure;BME280_temperature;BME280_humidity;BME280_pressure;Samples;Min_cycle;Max_cycle;Signal;HPM_P1;HPM_P2
2022/05/21 00:00:41;;;;;;;12.52;3.00;;;;;;;12.71;85.89;101983.25;5036028;28;20037;-73
2022/05/21 00:03:09;;;;;;;9.05;2.42;;;;;;;12.70;86.49;101984.13;5036105;28;20051;-73
2022/05/21 00:05:35;;;;;;;14.27;2.70;;;;;;;12.71;85.91;101978.00;5018597;28;20106;-73
2022/05/21 00:08:03;;;;;;;13.57;2.75;;;;;;;12.73;86.11;101981.44;5032879;28;20419;-73
2022/05/21 00:10:30;;;;;;;10.63;2.35;;;;;;;12.71;86.71;101973.59;5037247;28;20029;-73
2022/05/21 00:12:56;;;;;;;15.07;3.42;;;;;;;12.76;86.38;101966.41;5037286;28;20391;-73
2022/05/21 00:15:24;;;;;;;11.10;2.83;;;;;;;12.79;86.23;101971.59;5036609;28;20041;-73
2022/05/21 00:17:50;;;;;;;11.57;3.35;;;;;;;12.75;86.61;101972.59;5036612;28;20045;-73
2022/05/21 00:23:11;;;;;;;14.40;3.05;;;;;;;12.80;86.58;101983.81;5033023;28;20087;-73
2022/05/21 00:25:37;;;;;;;15.23;3.17;;;;;;;12.81;86.16;101980.28;5036295;28;20238;-73
2022/05/21 00:28:03;;;;;;;8.48;2.70;;;;;;;12.84;86.32;101985.44;5036777;28;20048;-73
2022/05/21 00:30:29;;;;;;;14.50;4.13;;;;;;;12.87;85.85;101985.34;5039117;28;20033;-73
2022/05/21 00:32:54;;;;;;;13.57;3.58;;;;;;;12.85;86.78;101981.03;5039897;28;20044;-73
2022/05/21 00:35:19;;;;;;;18.80;3.10;;;;;;;12.87;86.75;101992.38;5022943;28;20045;-73
2022/05/21 00:37:45;;;;;;;6.95;2.50;;;;;;;12.89;87.01;101995.81;5040044;28;20087;-73
2022/05/21 00:40:11;;;;;;;14.23;3.45;;;;;;;12.89;87.36;101994.94;5040443;28;20434;-73
2022/05/21 00:42:42;;;;;;;10.30;3.00;;;;;;;12.87;87.22;101993.22;5040546;28;20045;-73
2022/05/21 00:45:08;;;;;;;16.52;3.25;;;;;;;12.86;87.09;101983.63;5036741;28;20029;-73
2022/05/21 00:47:33;;;;;;;10.73;2.67;;;;;;;12.84;87.25;101988.06;5040028;28;20037;-73
2022/05/21 00:49:59;;;;;;;14.10;3.00;;;;;;;12.85;87.48;101984.53;5040602;28;20048;-73
2022/05/21 00:52:27;;;;;;;11.75;3.28;;;;;;;12.82;88.11;101991.66;5040413;28;20029;-73
2022/05/21 00:54:58;;;;;;;17.33;3.63;;;;;;;12.84;87.58;101995.09;5040792;28;20125;-73
2022/05/21 00:57:45;;;;;;;21.58;3.97;;;;;;;12.87;87.87;101995.84;5033764;28;20063;-73
2022/05/21 01:00:22;;;;;;;16.38;3.30;;;;;;;12.88;87.34;102002.00;5037801;28;20276;-73
2022/05/21 01:02:53;;;;;;;18.13;4.07;;;;;;;12.88;87.63;102002.00;5040104;28;20037;-73
2022/05/21 01:05:22;;;;;;;17.52;3.30;;;;;;;12.86;87.52;101995.88;5039967;28;20041;-73
2022/05/21 01:07:50;;;;;;;21.02;3.85;;;;;;;12.89;87.56;101998.44;5039459;28;20037;-73
2022/05/21 01:10:20;;;;;;;14.60;3.05;;;;;;;12.92;87.18;101990.47;5039365;28;20266;-73
2022/05/21 01:12:50;;;;;;;22.25;4.10;;;;;;;12.91;87.38;101988.72;5040470;28;20040;-73
2022/05/21 01:15:19;;;;;;;13.38;3.22;;;;;;;12.93;87.25;101989.53;5021989;28;20036;-73
2022/05/21 01:17:46;;;;;;;19.52;3.35;;;;;;;12.90;87.35;101994.91;5019066;28;20096;-73
2022/05/21 01:20:19;;;;;;;12.25;2.65;;;;;;;12.92;87.17;102003.59;5034489;28;20049;-73
2022/05/21 01:22:51;;;;;;;9.68;3.00;;;;;;;12.93;86.58;102002.66;5039849;28;20033;-74
2022/05/21 01:25:23;;;;;;;13.82;3.15;;;;;;;12.91;86.49;101999.25;5021916;28;20099;-73
2022/05/21 01:27:51;;;;;;;23.25;3.38;;;;;;;12.94;87.13;102003.56;5039493;28;20410;-73
2022/05/21 01:30:20;;;;;;;21.40;3.67;;;;;;;12.94;87.32;102004.41;5039434;28;20401;-73
2022/05/21 01:32:47;;;;;;;12.77;3.03;;;;;;;12.95;87.17;102007.88;5039236;28;20041;-73
2022/05/21 01:35:13;;;;;;;15.20;3.70;;;;;;;12.93;86.70;102007.09;5021850;28;20048;-73
2022/05/21 01:37:39;;;;;;;12.20;3.00;;;;;;;12.93;86.93;101999.19;5039153;28;20386;-73
2022/05/21 01:40:07;;;;;;;22.98;3.53;;;;;;;12.94;86.47;102019.34;5029150;28;20033;-73
2022/05/21 01:42:33;;;;;;;16.07;2.60;;;;;;;12.97;86.63;102011.31;5021630;28;20094;-73
2022/05/21 01:44:59;;;;;;;22.50;3.53;;;;;;;12.98;86.49;102013.06;5038845;28;20337;-73
2022/05/21 01:47:24;;;;;;;16.55;2.90;;;;;;;12.96;86.75;102007.00;5004858;28;20033;-73
2022/05/21 01:49:51;;;;;;;15.68;2.22;;;;;;;12.92;86.52;101992.22;5038345;28;20045;-73
2022/05/21 01:52:17;;;;;;;12.18;2.72;;;;;;;12.94;86.27;102007.03;5038862;28;20456;-73
2022/05/21 01:54:42;;;;;;;15.95;3.15;;;;;;;12.96;86.27;101997.31;5039134;28;20057;-73
2022/05/21 01:57:09;;;;;;;27.70;3.90;;;;;;;12.94;86.39;101996.53;5038794;28;20332;-73
2022/05/21 01:59:34;;;;;;;12.10;2.58;;;;;;;12.94;85.98;102009.66;5030480;28;20045;-73
2022/05/21 02:02:01;;;;;;;13.57;2.75;;;;;;;12.96;85.92;102004.38;5035744;28;20057;-73
2022/05/21 02:04:27;;;;;;;18.70;2.95;;;;;;;12.99;86.06;102012.16;5038488;28;20100;-73
2022/05/21 02:06:53;;;;;;;18.60;2.80;;;;;;;12.99;85.42;102002.50;5039096;28;20052;-73
2022/05/21 02:09:18;;;;;;;13.00;2.85;;;;;;;12.94;86.03;102006.19;5038521;28;20045;-73
2022/05/21 02:11:45;;;;;;;13.88;2.78;;;;;;;12.97;85.95;102006.06;5021311;28;20029;-73
2022/05/21 02:14:11;;;;;;;16.42;2.58;;;;;;;12.93;85.57;102013.19;5037442;28;20044;-73
2022/05/21 02:16:36;;;;;;;16.38;2.63;;;;;;;12.91;85.60;102007.13;5038851;28;20029;-73
2022/05/21 02:19:03;;;;;;;17.35;2.85;;;;;;;12.92;85.59;102011.50;5038192;28;20040;-73
2022/05/21 02:21:30;;;;;;;15.73;2.80;;;;;;;12.91;85.18;102008.91;5038878;28;20345;-76
2022/05/21 02:23:55;;;;;;;14.88;2.75;;;;;;;12.89;85.54;102014.22;5039264;28;20045;-76
2022/05/21 02:26:22;;;;;;;18.75;3.05;;;;;;;12.84;86.16;102002.97;5038696;28;20281;-76
2022/05/21 02:28:47;;;;;;;23.42;3.70;;;;;;;12.85;86.13;102010.81;5038099;28;20345;-73
2022/05/21 02:31:13;;;;;;;15.05;3.00;;;;;;;12.88;85.71;102009.88;5028583;28;20033;-73
2022/05/21 02:33:40;;;;;;;15.52;2.83;;;;;;;12.86;85.65;102007.28;5038090;28;20041;-74
2022/05/21 02:36:05;;;;;;;11.40;2.75;;;;;;;12.88;85.62;102012.50;5037200;28;20276;-74
2022/05/21 02:41:16;;;;;;;14.45;2.65;;;;;;;12.87;85.40;102016.88;5038445;28;20213;-74
2022/05/21 02:43:43;;;;;;;13.93;3.10;;;;;;;12.84;84.79;102009.13;5037897;28;20045;-74
2022/05/21 02:46:09;;;;;;;11.90;2.58;;;;;;;12.87;84.92;102014.25;5037761;28;20169;-73
2022/05/21 02:48:35;;;;;;;11.27;2.05;;;;;;;12.84;84.81;102029.25;5036895;28;20339;-74
2022/05/21 02:51:01;;;;;;;12.55;2.50;;;;;;;12.83;84.87;102019.66;5038032;28;20041;-73
2022/05/21 02:53:26;;;;;;;15.93;2.88;;;;;;;12.83;84.96;102017.91;5036914;28;20112;-74
2022/05/21 02:55:55;;;;;;;11.13;2.28;;;;;;;12.84;84.97;102011.75;5020841;28;20052;-74
2022/05/21 02:58:21;;;;;;;10.43;2.17;;;;;;;12.82;84.57;102012.69;5037469;28;20124;-74
2022/05/21 03:00:47;;;;;;;19.08;2.80;;;;;;;12.81;84.13;102017.09;5037695;28;20034;-74
2022/05/21 03:03:13;;;;;;;11.85;2.40;;;;;;;12.81;84.39;102017.09;5037446;28;20072;-73
2022/05/21 03:05:39;;;;;;;13.35;2.17;;;;;;;12.82;84.25;102025.81;5038215;28;20037;-73
2022/05/21 03:10:20;;;;;;;14.20;2.58;;;;;;;12.77;84.23;102018.09;5036851;28;20221;-73
2022/05/21 03:10:52;;;;;;;12.00;2.78;;;;;;;12.77;83.93;102017.22;5035560;28;20112;-74
2022/05/21 03:13:17;;;;;;;13.05;2.40;;;;;;;12.76;83.98;102023.41;5036773;28;20333;-73
2022/05/21 03:15:43;;;;;;;13.43;2.35;;;;;;;12.74;83.65;102020.81;5037470;28;20053;-74
2022/05/21 03:18:11;;;;;;;13.60;2.72;;;;;;;12.76;83.79;102020.75;5037376;28;20048;-74
2022/05/21 03:20:37;;;;;;;14.55;2.67;;;;;;;12.75;83.71;102025.16;5034573;28;20036;-74
2022/05/21 03:23:04;;;;;;;4.78;1.52;;;;;;;12.77;83.46;102020.72;5033869;28;20041;-74
2022/05/21 03:25:29;;;;;;;10.30;2.15;;;;;;;12.76;83.06;102023.41;5036380;28;20045;-74
2022/05/21 03:27:55;;;;;;;4.28;1.90;;;;;;;12.73;83.35;102023.47;5035604;28;20108;-73
2022/05/21 03:30:23;;;;;;;5.50;1.67;;;;;;;12.73;83.05;102024.34;5035722;28;20413;-74
2022/05/21 03:32:49;;;;;;;8.50;1.98;;;;;;;12.68;82.64;102031.53;5035775;28;20181;-74
2022/05/21 03:35:18;;;;;;;17.35;2.50;;;;;;;12.70;83.02;102026.19;5034486;28;20029;-73
2022/05/21 03:37:44;;;;;;;11.48;2.42;;;;;;;12.65;82.30;102029.81;5035644;28;20367;-74
2022/05/21 03:40:12;;;;;;;7.05;1.55;;;;;;;12.67;82.87;102027.16;5035023;28;20041;-74
2022/05/21 03:42:38;;;;;;;11.23;2.20;;;;;;;12.64;82.61;102028.13;5035927;28;20329;-74
2022/05/21 03:45:04;;;;;;;11.40;2.42;;;;;;;12.66;82.15;102030.69;5035212;28;20064;-74
2022/05/21 03:47:29;;;;;;;9.82;2.10;;;;;;;12.68;82.33;102031.53;5035236;28;20104;-74
2022/05/21 03:49:55;;;;;;;9.90;2.55;;;;;;;12.68;82.12;102034.16;5035221;28;20047;-74
2022/05/21 03:52:20;;;;;;;5.28;1.60;;;;;;;12.66;82.03;102034.19;5034991;28;20143;-74
2022/05/21 03:54:46;;;;;;;4.25;1.65;;;;;;;12.65;81.99;102037.72;5018072;28;20033;-74
2022/05/21 03:57:12;;;;;;;7.70;2.25;;;;;;;12.67;81.67;102030.63;5035003;28;20087;-73
2022/05/21 03:59:37;;;;;;;7.53;1.90;;;;;;;12.67;81.69;102033.28;5035005;28;20052;-74
2022/05/21 04:02:05;;;;;;;9.43;2.33;;;;;;;12.68;81.84;102035.00;5035063;28;20049;-74
2022/05/21 04:04:31;;;;;;;11.10;2.33;;;;;;;12.70;81.75;102041.97;5035500;28;20037;-74
2022/05/21 04:06:57;;;;;;;7.22;1.83;;;;;;;12.70;81.14;102041.97;5038972;28;20045;-74
2022/05/21 04:09:22;;;;;;;7.55;2.50;;;;;;;12.70;81.39;102047.22;5038397;28;20061;-74
2022/05/21 04:11:48;;;;;;;11.32;2.30;;;;;;;12.69;81.22;102046.38;5038847;28;20056;-74
2022/05/21 04:14:14;;;;;;;10.60;2.60;;;;;;;12.66;81.13;102047.34;5039411;28;20033;-74
2022/05/21 04:16:41;;;;;;;9.98;2.17;;;;;;;12.67;80.96;102050.81;5038855;28;20053;-74
2022/05/21 04:19:06;;;;;;;10.40;2.35;;;;;;;12.68;80.94;102053.41;5038412;28;20041;-73
2022/05/21 04:21:32;;;;;;;8.77;2.35;;;;;;;12.68;80.93;102060.44;5038897;28;20128;-74
2022/05/21 04:23:57;;;;;;;11.32;2.97;;;;;;;12.64;80.77;102062.28;5039093;28;20037;-74
2022/05/21 04:26:23;;;;;;;8.52;1.48;;;;;;;12.64;80.72;102057.03;5037608;28;20122;-74
2022/05/21 04:28:48;;;;;;;9.45;1.95;;;;;;;12.65;80.88;102063.16;5038944;28;20072;-74
2022/05/21 04:31:13;;;;;;;10.02;2.28;;;;;;;12.63;80.44;102064.97;5037658;28;20045;-74
2022/05/21 04:33:39;;;;;;;7.25;2.13;;;;;;;12.60;80.66;102055.38;5037690;28;20120;-74
2022/05/21 04:36:19;;;;;;;12.32;1.83;;;;;;;12.61;80.60;102062.38;5036599;28;20040;-74
2022/05/21 04:38:50;;;;;;;10.80;2.17;;;;;;;12.56;80.36;102064.28;5035754;28;20068;-73
2022/05/21 04:41:16;;;;;;;7.43;1.67;;;;;;;12.56;80.67;102068.69;5036611;28;20033;-74
2022/05/21 04:43:42;;;;;;;4.75;1.45;;;;;;;12.58;80.93;102072.13;5038651;28;20340;-74
2022/05/21 04:46:08;;;;;;;17.35;2.75;;;;;;;12.53;80.74;102077.50;5037680;28;20033;-74
2022/05/21 04:48:33;;;;;;;5.55;1.77;;;;;;;12.56;80.88;102069.53;5037295;28;20059;-74
2022/05/21 04:51:00;;;;;;;8.82;1.98;;;;;;;12.54;80.72;102071.34;5036919;28;20038;-74
2022/05/21 04:53:26;;;;;;;10.38;1.83;;;;;;;12.56;80.68;102077.41;5038535;28;20029;-74
2022/05/21 04:55:51;;;;;;;5.72;2.05;;;;;;;12.58;80.95;102077.38;5037837;28;20056;-74
2022/05/21 04:58:16;;;;;;;12.85;2.63;;;;;;;12.57;80.79;102081.78;5037381;28;20033;-74
2022/05/21 05:00:42;;;;;;;6.95;1.70;;;;;;;12.57;80.69;102089.66;5037464;28;20604;-74
2022/05/21 05:03:12;;;;;;;15.68;2.92;;;;;;;12.55;80.80;102091.47;5036706;28;20218;-74
2022/05/21 05:05:39;;;;;;;8.48;1.73;;;;;;;12.57;80.52;102096.66;5037461;28;20109;-73
2022/05/21 05:08:05;;;;;;;7.78;1.80;;;;;;;12.57;80.89;102101.91;5032762;28;20037;-73
2022/05/21 05:10:30;;;;;;;9.43;2.15;;;;;;;12.59;80.74;102105.38;5037580;28;20029;-73
2022/05/21 05:12:56;;;;;;;9.20;1.63;;;;;;;12.60;81.00;102104.47;5037844;28;20241;-74
2022/05/21 05:15:21;;;;;;;16.88;2.30;;;;;;;12.59;80.85;102098.34;5037061;28;20252;-73
2022/05/21 05:17:47;;;;;;;15.85;2.58;;;;;;;12.59;80.74;102100.13;5001700;28;20033;-73
2022/05/21 05:20:12;;;;;;;12.90;2.00;;;;;;;12.55;80.76;102101.09;5036818;28;20059;-74
2022/05/21 05:22:37;;;;;;;12.45;2.10;;;;;;;12.54;80.54;102102.03;5037834;28;20120;-73
2022/05/21 05:25:05;;;;;;;14.30;2.50;;;;;;;12.55;80.90;102103.72;5037514;28;20300;-73
2022/05/21 05:27:30;;;;;;;10.07;2.03;;;;;;;12.54;81.12;102108.13;5036569;28;20240;-74
2022/05/21 05:29:55;;;;;;;13.05;2.80;;;;;;;12.49;80.67;102110.03;5036934;28;20033;-73
2022/05/21 05:32:21;;;;;;;9.95;1.98;;;;;;;12.51;80.85;102108.22;5036585;28;20108;-74
2022/05/21 05:34:46;;;;;;;7.88;1.85;;;;;;;12.55;80.94;102119.50;5036665;28;20298;-74
2022/05/21 05:37:12;;;;;;;9.18;1.75;;;;;;;12.56;80.76;102115.97;5035883;28;20376;-73
2022/05/21 05:39:37;;;;;;;10.00;2.75;;;;;;;12.56;80.85;102122.09;5037066;28;20341;-73
2022/05/21 05:42:04;;;;;;;14.13;2.60;;;;;;;12.55;80.90;102128.25;5034495;28;20057;-73
2022/05/21 05:44:31;;;;;;;7.80;2.08;;;;;;;12.55;80.75;102112.50;5042935;28;20040;-74
2022/05/21 05:46:57;;;;;;;8.80;1.88;;;;;;;12.59;80.79;102115.91;5045984;28;20305;-74
2022/05/21 05:49:22;;;;;;;8.52;1.95;;;;;;;12.61;80.75;102111.47;5037912;28;20037;-74
2022/05/21 05:51:47;;;;;;;7.18;2.03;;;;;;;12.61;80.83;102114.94;5019486;28;20256;-74
2022/05/21 05:54:13;;;;;;;11.88;2.13;;;;;;;12.63;80.85;102118.38;5036992;28;20285;-74
2022/05/21 05:56:42;;;;;;;8.90;2.30;;;;;;;12.65;81.40;102102.56;5037532;28;20206;-74
2022/05/21 06:02:57;;;;;;;11.10;2.03;;;;;;;12.65;81.16;102108.69;5021679;28;20040;-74
2022/05/21 06:04:39;;;;;;;4.57;1.65;;;;;;;12.65;80.74;102113.94;5023686;28;20053;-74
2022/05/21 06:07:05;;;;;;;22.42;3.20;;;;;;;12.63;81.04;102122.78;5032057;28;20191;-73
2022/05/21 06:09:32;;;;;;;10.15;2.42;;;;;;;12.61;80.78;102127.22;5036222;28;20045;-74
2022/05/21 06:11:58;;;;;;;13.88;2.13;;;;;;;12.60;80.54;102128.97;5037055;28;20152;-74
2022/05/21 06:14:23;;;;;;;12.43;1.98;;;;;;;12.62;80.69;102132.41;5035672;28;20029;-74
2022/05/21 06:16:48;;;;;;;11.45;2.00;;;;;;;12.62;80.72;102137.66;5036951;28;20037;-74
2022/05/21 06:19:14;;;;;;;10.13;2.55;;;;;;;12.65;80.81;102139.38;5033312;28;20251;-73
2022/05/21 06:21:39;;;;;;;6.15;1.90;;;;;;;12.67;81.13;102141.03;5037107;28;20258;-73
2022/05/21 06:24:05;;;;;;;9.98;2.10;;;;;;;12.69;81.18;102141.00;5020076;28;20041;-74
2022/05/21 06:26:30;;;;;;;7.68;1.65;;;;;;;12.71;80.83;102135.69;5032030;28;20045;-74
2022/05/21 06:28:55;;;;;;;6.57;1.90;;;;;;;12.73;80.83;102153.13;5040059;28;20116;-73
2022/05/21 06:31:21;;;;;;;16.40;2.83;;;;;;;12.72;81.63;102159.31;5036979;28;20037;-73
2022/05/21 06:33:46;;;;;;;7.28;1.80;;;;;;;12.72;81.12;102161.94;5029253;28;20042;-73
2022/05/21 06:36:14;;;;;;;7.20;2.00;;;;;;;12.73;81.05;102161.00;5044807;28;20041;-73
2022/05/21 06:38:41;;;;;;;4.87;1.57;;;;;;;12.74;81.04;102165.38;5037760;28;20361;-73
2022/05/21 06:41:08;;;;;;;12.52;2.70;;;;;;;12.73;81.49;102166.28;5042737;28;20321;-73
2022/05/21 06:43:34;;;;;;;12.10;2.35;;;;;;;12.74;81.37;102168.00;5038109;28;20041;-73
2022/05/21 06:45:59;;;;;;;15.93;2.70;;;;;;;12.76;80.99;102167.97;5037943;28;20067;-74
2022/05/21 06:48:24;;;;;;;12.85;2.38;;;;;;;12.76;80.88;102181.13;5046933;28;20107;-73
2022/05/21 06:50:50;;;;;;;14.73;3.13;;;;;;;12.76;80.99;102179.34;5038141;28;20031;-75
2022/05/21 06:53:15;;;;;;;8.07;1.85;;;;;;;12.77;80.58;102177.56;5028052;28;20309;-73
2022/05/21 06:55:41;;;;;;;9.75;1.80;;;;;;;12.78;80.88;102195.06;5037205;28;20108;-74
2022/05/21 06:58:07;;;;;;;11.43;1.73;;;;;;;12.79;81.07;102195.03;5036645;28;20048;-73
2022/05/21 07:00:32;;;;;;;9.75;1.65;;;;;;;12.79;81.20;102195.03;5021008;28;20048;-73
2022/05/21 07:02:58;;;;;;;9.40;1.70;;;;;;;12.81;81.09;102195.84;5036871;28;20091;-74
2022/05/21 07:08:25;;;;;;;14.77;2.33;;;;;;;12.81;81.06;102190.59;5026591;28;20358;-74
2022/05/21 07:10:52;;;;;;;9.82;2.97;;;;;;;12.82;81.03;102201.97;5040532;28;20037;-74
2022/05/21 07:13:19;;;;;;;7.10;2.13;;;;;;;12.84;81.34;102206.28;5037579;28;20029;-73
2022/05/21 07:15:47;;;;;;;7.85;2.00;;;;;;;12.85;80.96;102199.25;5036097;28;20393;-74
2022/05/21 07:18:16;;;;;;;12.10;2.47;;;;;;;12.87;81.10;102203.53;5034521;28;20052;-74
2022/05/21 07:20:41;;;;;;;10.15;2.22;;;;;;;12.89;81.17;102202.66;5031058;28;20014;-74
2022/05/21 07:23:07;;;;;;;8.43;1.65;;;;;;;12.91;81.13;102214.84;5032728;28;20049;-73
2022/05/21 07:25:32;;;;;;;8.75;1.88;;;;;;;12.91;80.92;102221.88;5028842;28;20037;-73
2022/05/21 07:27:59;;;;;;;19.88;3.03;;;;;;;12.92;80.74;102223.63;5034172;28;20053;-73
2022/05/21 07:30:25;;;;;;;9.98;2.20;;;;;;;12.95;80.73;102224.38;5016791;28;20032;-73
2022/05/21 07:32:52;;;;;;;10.57;2.08;;;;;;;12.98;81.10;102228.69;5032164;28;20041;-73
2022/05/21 07:35:19;;;;;;;12.73;2.15;;;;;;;12.98;81.11;102228.69;5013816;28;20029;-73
2022/05/21 07:37:44;;;;;;;6.60;2.00;;;;;;;12.98;80.89;102232.16;5022952;28;20280;-74
2022/05/21 07:40:11;;;;;;;14.05;2.92;;;;;;;12.99;80.85;102235.69;5035147;28;20071;-74
2022/05/21 07:42:37;;;;;;;9.88;2.65;;;;;;;13.01;81.20;102233.88;5035730;28;20241;-74
2022/05/21 07:45:08;;;;;;;10.63;2.20;;;;;;;13.04;81.25;102234.63;5035801;28;20395;-74
2022/05/21 07:47:33;;;;;;;12.00;2.33;;;;;;;13.04;81.45;102229.38;5033613;28;20222;-73
2022/05/21 07:49:59;;;;;;;7.38;1.85;;;;;;;13.07;81.42;102241.56;5031813;28;20040;-74
2022/05/21 07:52:26;;;;;;;17.52;2.15;;;;;;;13.09;80.99;102237.13;5030469;28;20045;-74
2022/05/21 07:54:52;;;;;;;9.52;2.72;;;;;;;13.12;81.19;102244.06;5020229;28;20040;-74
2022/05/21 07:57:17;;;;;;;12.55;2.67;;;;;;;13.15;81.15;102239.59;5027416;28;20361;-73
2022/05/21 07:59:43;;;;;;;10.65;2.53;;;;;;;13.18;81.24;102243.88;5035511;28;20043;-74
2022/05/21 08:02:13;;;;;;;9.40;2.25;;;;;;;13.22;81.55;102240.25;5029008;28;20045;-74
2022/05/21 08:04:39;;;;;;;8.27;1.75;;;;;;;13.24;80.89;102243.69;5035446;28;20061;-74
2022/05/21 08:07:04;;;;;;;8.45;1.85;;;;;;;13.24;80.22;102247.22;5027980;28;20026;-74
2022/05/21 08:09:30;;;;;;;12.57;2.60;;;;;;;13.27;80.44;102256.78;5025648;28;20341;-74
2022/05/21 08:11:55;;;;;;;12.05;2.60;;;;;;;13.29;80.58;102257.59;5035509;28;20037;-73
2022/05/21 08:14:21;;;;;;;14.23;2.65;;;;;;;13.31;80.99;102254.94;5029900;28;20049;-73
2022/05/21 08:16:46;;;;;;;16.27;3.10;;;;;;;13.30;80.47;102254.06;5029396;28;20087;-74
2022/05/21 08:19:12;;;;;;;11.02;2.47;;;;;;;13.33;81.01;102256.59;5031576;28;20040;-73
2022/05/21 08:21:39;;;;;;;8.77;2.10;;;;;;;13.34;80.72;102250.44;5023316;28;20245;-73
2022/05/21 08:26:57;;;;;;;14.43;2.50;;;;;;;13.37;80.71;102258.25;5033454;28;20048;-73
2022/05/21 08:29:32;;;;;;;15.15;3.08;;;;;;;13.40;81.24;102254.66;5035077;28;20037;-73
2022/05/21 08:31:59;;;;;;;12.75;2.35;;;;;;;13.42;81.55;102256.38;5032182;28;20040;-73
2022/05/21 08:34:25;;;;;;;8.57;1.98;;;;;;;13.47;81.27;102258.84;5015417;28;20035;-73
2022/05/21 08:36:51;;;;;;;17.50;3.15;;;;;;;13.49;80.66;102256.16;5031208;28;20029;-74
2022/05/21 08:39:18;;;;;;;9.50;2.47;;;;;;;13.50;80.70;102253.50;5033095;28;20048;-74
2022/05/21 08:42:13;;;;;;;6.60;1.90;;;;;;;13.50;80.04;102253.50;5028878;28;20045;-74
2022/05/21 08:44:47;;;;;;;12.95;2.97;;;;;;;13.52;80.61;102250.81;5034757;28;20045;-74
2022/05/21 08:47:21;;;;;;;21.02;3.22;;;;;;;13.53;80.42;102249.88;5033024;28;20033;-73
2022/05/21 08:50:09;;;;;;;7.95;2.03;;;;;;;13.54;79.92;102254.25;5028789;28;20085;-73
2022/05/21 08:52:41;;;;;;;;;;;;;;;13.54;79.65;102244.59;5037677;28;20044;-74
2022/05/21 08:55:09;;;;;;;11.77;2.58;;;;;;;13.58;80.09;102254.09;5029230;28;19913;-74
2022/05/21 08:57:52;;;;;;;14.32;1.98;;;;;;;13.58;79.97;102259.38;5036111;28;20037;-74
2022/05/21 09:00:27;;;;;;;16.90;2.65;;;;;;;13.60;79.39;102265.44;5020019;28;20088;-74
2022/05/21 09:02:54;;;;;;;10.38;2.50;;;;;;;13.61;79.25;102261.91;5039943;28;20035;-74
2022/05/21 09:05:21;;;;;;;7.70;2.13;;;;;;;13.66;79.66;102258.28;5031912;28;20046;-74
2022/05/21 09:08:28;;;;;;;9.45;2.20;;;;;;;13.65;79.26;102259.19;5033866;28;20034;-74
2022/05/21 09:11:01;;;;;;;9.63;1.95;;;;;;;13.68;79.99;102254.69;5023942;28;20036;-74
2022/05/21 09:13:35;;;;;;;9.98;2.50;;;;;;;13.72;79.42;102255.47;5022929;28;20107;-74
2022/05/21 09:18:45;;;;;;;9.10;2.33;;;;;;;13.78;80.01;102252.63;5031257;28;20040;-74
2022/05/21 09:21:15;;;;;;;8.43;1.98;;;;;;;13.80;79.57;102253.44;5038532;28;20037;-74
2022/05/21 09:23:53;;;;;;;11.10;3.00;;;;;;;13.82;79.48;102256.88;5040139;28;20041;-74
2022/05/21 09:26:21;;;;;;;14.98;3.20;;;;;;;13.85;80.09;102255.94;5041728;28;20036;-74
2022/05/21 09:28:48;;;;;;;9.52;2.50;;;;;;;13.86;79.55;102253.25;5046595;28;20052;-74
2022/05/21 09:31:20;;;;;;;12.60;2.72;;;;;;;13.88;79.42;102264.59;5036641;28;20064;-74
2022/05/21 09:33:46;;;;;;;13.27;2.15;;;;;;;13.89;78.88;102265.47;5037680;28;20084;-74
2022/05/21 09:36:18;;;;;;;16.98;3.08;;;;;;;13.91;78.82;102269.75;5038761;28;20037;-74
2022/05/21 09:38:55;;;;;;;16.45;3.00;;;;;;;13.89;77.77;102261.03;5039000;28;20041;-74
2022/05/21 09:41:30;;;;;;;13.73;2.85;;;;;;;13.93;79.42;102260.03;5035396;28;20071;-74
2022/05/21 09:46:47;;;;;;;10.05;2.80;;;;;;;13.97;78.76;102253.78;5022552;28;20088;-74
2022/05/21 09:49:29;;;;;;;11.10;2.92;;;;;;;13.99;78.37;102256.38;5017777;28;20037;-73
2022/05/21 09:51:57;;;;;;;8.20;2.88;;;;;;;14.01;78.32;102250.13;5030714;28;20065;-74
2022/05/21 09:54:34;;;;;;;16.42;2.97;;;;;;;14.04;78.54;102259.69;5008370;28;20034;-74
2022/05/21 09:57:00;;;;;;;10.23;3.47;;;;;;;14.06;79.13;102260.53;5022294;28;20245;-74
2022/05/21 09:59:29;;;;;;;11.30;2.50;;;;;;;14.07;78.23;102266.66;4995107;28;20029;-73
2022/05/21 10:01:59;;;;;;;11.55;2.45;;;;;;;14.08;77.92;102266.59;5009409;28;20097;-73
2022/05/21 10:04:43;;;;;;;11.10;2.75;;;;;;;14.10;78.42;102277.06;5008651;28;20388;-74
2022/05/21 10:13:06;;;;;;;14.82;3.15;;;;;;;14.09;79.18;102285.88;5010859;28;20087;-73
2022/05/21 10:15:39;;;;;;;14.47;3.47;;;;;;;14.12;79.52;102293.69;5000486;28;20388;-73
2022/05/21 10:18:20;;;;;;;20.08;3.13;;;;;;;14.16;80.04;102290.06;5024856;28;20280;-73
2022/05/21 10:20:51;;;;;;;10.68;2.47;;;;;;;14.18;79.49;102293.50;5009794;28;20045;-73
2022/05/21 10:23:38;;;;;;;10.65;3.22;;;;;;;14.20;78.70;102291.66;5007220;28;20278;-74
2022/05/21 10:26:32;;;;;;;15.50;3.67;;;;;;;14.27;79.48;102294.97;4998402;28;20141;-73
2022/05/21 10:29:39;;;;;;;12.15;3.70;;;;;;;14.30;79.15;102294.88;5006563;28;20014;-73
2022/05/21 10:32:32;;;;;;;14.00;3.72;;;;;;;14.35;79.78;102290.28;5007646;28;20352;-74
2022/05/21 10:35:19;;;;;;;16.88;4.07;;;;;;;14.37;78.40;102294.63;5016946;28;20124;-74
2022/05/21 10:38:01;;;;;;;12.73;3.00;;;;;;;14.39;77.69;102299.84;5018164;28;20104;-74
2022/05/21 10:40:50;;;;;;;12.95;3.33;;;;;;;14.39;77.53;102298.06;5019055;28;20101;-73
2022/05/21 10:43:18;;;;;;;20.98;4.03;;;;;;;14.39;77.84;102300.69;5017901;28;20060;-73
2022/05/21 10:46:26;;;;;;;14.38;3.38;;;;;;;14.38;77.63;102292.84;5009837;28;20038;-74
2022/05/21 10:49:29;;;;;;;13.48;3.30;;;;;;;14.39;77.73;102303.31;4959974;28;20054;-73
2022/05/21 10:52:18;;;;;;;13.38;3.78;;;;;;;14.39;77.61;102295.41;5017723;28;20034;-74
2022/05/21 10:54:59;;;;;;;11.55;2.58;;;;;;;14.40;77.13;102302.41;5013313;28;20073;-73
2022/05/21 10:57:48;;;;;;;11.07;3.38;;;;;;;14.36;76.26;102303.41;5012260;28;20311;-74
2022/05/21 11:00:35;;;;;;;11.30;2.78;;;;;;;14.38;76.31;102293.69;5005965;28;20409;-74
2022/05/21 11:03:38;;;;;;;10.25;2.60;;;;;;;14.40;77.46;102294.50;5012561;28;20042;-74
2022/05/21 11:06:39;;;;;;;9.02;2.28;;;;;;;14.43;77.98;102300.59;5015658;28;20245;-74
2022/05/21 11:09:21;;;;;;;13.45;3.13;;;;;;;14.43;76.87;102306.72;5007110;28;20045;-73
2022/05/21 11:12:03;;;;;;;10.27;2.15;;;;;;;14.44;76.53;102303.16;5015637;28;20034;-74
2022/05/21 11:14:44;;;;;;;7.50;2.17;;;;;;;14.49;76.35;102305.66;5011895;28;20037;-73
2022/05/21 11:17:41;;;;;;;9.40;2.00;;;;;;;14.50;76.68;102310.88;5008976;28;20096;-73
2022/05/21 11:20:36;;;;;;;15.27;3.30;;;;;;;14.55;76.94;102306.31;5003320;28;20038;-73
2022/05/21 11:23:10;;;;;;;8.60;2.58;;;;;;;14.57;76.16;102300.97;5003675;28;20054;-73
2022/05/21 11:25:36;;;;;;;10.75;2.33;;;;;;;14.59;75.18;102315.88;5001015;28;20037;-73
2022/05/21 11:28:40;;;;;;;13.30;2.60;;;;;;;14.62;75.52;102304.34;5003363;28;20049;-73
2022/05/21 11:31:15;;;;;;;6.93;1.63;;;;;;;14.63;76.09;102306.06;5009029;28;20048;-73
2022/05/21 11:39:20;;;;;;;10.70;2.35;;;;;;;14.70;76.28;102306.75;4995586;28;20261;-73
2022/05/21 11:42:09;;;;;;;12.52;2.63;;;;;;;14.72;75.67;102313.66;5018773;28;20080;-73
2022/05/21 11:44:56;;;;;;;7.65;1.83;;;;;;;14.76;75.58;102302.09;5036976;28;20033;-73
2022/05/21 11:47:21;;;;;;;11.60;2.45;;;;;;;14.83;76.04;102299.25;5032879;28;20037;-73
2022/05/21 11:49:52;;;;;;;14.05;2.45;;;;;;;14.84;74.65;102304.44;5031018;28;20088;-73
2022/05/21 11:52:26;;;;;;;11.98;2.15;;;;;;;14.87;75.85;102307.00;5027333;28;20365;-73
2022/05/21 11:54:55;;;;;;;9.77;1.95;;;;;;;14.89;75.53;102307.78;5017780;28;20045;-73
2022/05/21 11:57:40;;;;;;;9.45;2.10;;;;;;;14.92;75.69;102301.56;5025192;28;20219;-73
2022/05/21 12:00:14;;;;;;;7.63;1.73;;;;;;;14.95;76.17;102296.16;5028338;28;20048;-73
2022/05/21 12:02:53;;;;;;;9.20;2.85;;;;;;;14.97;75.11;102294.31;5035005;28;20034;-73